Time;durP1;ratioP1;P1;durP2;ratioP2;P2;SDS_P1;SDS_P2;PMS_P1;PMS_P2;Temp;Humidity;BMP_temperature;BMP_pressure;BME280_temperature;BME280_humidity;BME280_pressure;Samples;Min_cycle;Max_cycle;Signal;HPM_P1;HPM_P2
2023/10/30 00:01:39;;;;;;;11.93;1.80;;;;;;;-145.18;100.00;46666.25;5034061;28;20485;-71
2023/10/30 00:04:05;;;;;;;5.07;1.67;;;;;;;-145.18;100.00;46666.25;5033009;28;20466;-71
2023/10/30 00:06:31;;;;;;;11.33;3.10;;;;;;;-145.18;100.00;46664.31;5033873;28;20033;-71
2023/10/30 00:08:57;;;;;;;10.43;1.70;;;;;;;-145.18;100.00;46668.22;5031943;28;20305;-71
2023/10/30 00:11:22;;;;;;;13.20;2.07;;;;;;;-145.18;100.00;46664.31;5033366;28;20454;-71
2023/10/30 00:13:47;;;;;;;5.70;1.37;;;;;;;-145.18;100.00;46666.25;5033764;28;20107;-71
2023/10/30 00:16:13;;;;;;;9.07;1.53;;;;;;;-145.18;100.00;46664.31;5031382;28;20030;-71
2023/10/30 00:18:41;;;;;;;7.10;1.77;;;;;;;-145.18;100.00;46662.34;5033797;28;20033;-71
2023/10/30 00:21:10;;;;;;;9.57;1.80;;;;;;;-145.18;100.00;46664.31;5028816;28;20120;-72
2023/10/30 00:23:36;;;;;;;10.93;1.47;;;;;;;-145.18;100.00;46662.34;5033627;28;20052;-72
2023/10/30 00:26:03;;;;;;;7.23;1.57;;;;;;;-145.18;100.00;46666.25;5033296;28;20274;-72
2023/10/30 00:28:30;;;;;;;10.33;1.83;;;;;;;-145.18;100.00;46656.50;5033612;28;20041;-72
2023/10/30 00:30:55;;;;;;;9.20;1.43;;;;;;;-145.18;100.00;46656.50;5031010;28;20274;-71
2023/10/30 00:33:21;;;;;;;12.80;1.63;;;;;;;-145.18;100.00;46664.31;5033426;28;20168;-71
2023/10/30 00:35:46;;;;;;;6.83;1.40;;;;;;;-145.18;100.00;46658.44;5033605;28;20375;-71
2023/10/30 00:38:11;;;;;;;5.07;1.53;;;;;;;-145.18;100.00;46666.25;5033132;28;20116;-72
2023/10/30 00:40:37;;;;;;;10.00;1.10;;;;;;;-145.18;100.00;46668.22;5014946;28;20037;-72
2023/10/30 00:43:02;;;;;;;8.47;1.50;;;;;;;-145.18;100.00;46660.41;5031949;28;20516;-71
2023/10/30 00:45:28;;;;;;;7.30;1.27;;;;;;;-145.18;100.00;46664.31;5032745;28;20220;-71
2023/10/30 00:47:53;;;;;;;6.30;1.50;;;;;;;-145.18;100.00;46664.31;5033263;28;20037;-72
2023/10/30 00:50:18;;;;;;;15.70;1.97;;;;;;;-145.18;100.00;46660.41;5032666;28;20041;-71
2023/10/30 00:52:44;;;;;;;6.60;1.20;;;;;;;-145.18;100.00;46662.34;5033376;28;20064;-72
2023/10/30 00:55:09;;;;;;;5.53;1.20;;;;;;;-145.18;100.00;46660.41;5033012;28;20040;-72
2023/10/30 00:57:35;;;;;;;5.60;1.23;;;;;;;-145.18;100.00;46660.41;5033280;28;20121;-66
2023/10/30 01:00:00;;;;;;;11.97;1.57;;;;;;;-145.18;100.00;46660.41;5032400;28;20029;-66
2023/10/30 01:02:26;;;;;;;10.00;1.30;;;;;;;-145.18;100.00;46660.41;5033112;28;20462;-66
2023/10/30 01:04:51;;;;;;;6.23;1.43;;;;;;;-145.18;100.00;46662.34;5032168;28;20515;-66
2023/10/30 01:07:16;;;;;;;7.83;1.63;;;;;;;-145.18;100.00;46664.31;5032847;28;20041;-66
2023/10/30 01:09:43;;;;;;;9.93;1.20;;;;;;;-145.18;100.00;46660.41;5032318;28;20025;-67
2023/10/30 01:12:09;;;;;;;7.00;1.33;;;;;;;-145.18;100.00;46664.31;5032775;28;20041;-66
2023/10/30 01:14:34;;;;;;;7.97;1.73;;;;;;;-145.18;100.00;46666.25;5032879;28;20758;-67
2023/10/30 01:16:59;;;;;;;6.40;1.20;;;;;;;-145.18;100.00;46660.41;5032346;28;20026;-66
2023/10/30 01:19:25;;;;;;;9.97;1.47;;;;;;;-145.18;100.00;46664.31;5031752;28;20041;-66
2023/10/30 01:21:51;;;;;;;9.53;1.60;;;;;;;-145.18;100.00;46662.34;5032251;28;20044;-66
2023/10/30 01:24:16;;;;;;;11.10;1.37;;;;;;;-145.18;100.00;46666.25;5030721;28;20033;-66
2023/10/30 01:26:41;;;;;;;10.07;1.30;;;;;;;-145.18;100.00;46668.22;5031763;28;20053;-66
2023/10/30 01:29:07;;;;;;;10.00;1.33;;;;;;;-145.18;100.00;46660.41;5026155;28;20122;-66
2023/10/30 01:31:32;;;;;;;6.80;1.30;;;;;;;-145.18;100.00;46666.25;5031842;28;20063;-66
2023/10/30 01:33:58;;;;;;;14.90;1.50;;;;;;;-145.18;100.00;46666.25;5031989;28;20123;-66
2023/10/30 01:36:23;;;;;;;10.07;1.17;;;;;;;-145.18;100.00;46666.25;5031983;28;20076;-66
2023/10/30 01:38:49;;;;;;;11.73;1.30;;;;;;;-145.18;100.00;46664.31;5030696;28;20068;-66
2023/10/30 01:41:14;;;;;;;7.67;1.23;;;;;;;-145.18;100.00;46664.31;5031872;28;20053;-67
2023/10/30 01:43:40;;;;;;;5.57;1.77;;;;;;;-145.18;100.00;46662.34;5032300;28;20120;-66
2023/10/30 01:46:08;;;;;;;9.97;1.60;;;;;;;-145.18;100.00;46660.41;5030167;28;20179;-66
2023/10/30 01:48:34;;;;;;;9.23;1.20;;;;;;;-145.18;100.00;46664.31;5031450;28;20405;-66
2023/10/30 01:51:02;;;;;;;8.47;1.40;;;;;;;-145.18;100.00;46668.22;5031580;28;20543;-66
2023/10/30 01:53:29;;;;;;;14.70;1.53;;;;;;;-145.18;100.00;46666.25;5031857;28;20293;-66
2023/10/30 01:55:56;;;;;;;6.97;1.30;;;;;;;-145.18;100.00;46664.31;5031914;28;20029;-66
2023/10/30 01:58:23;;;;;;;7.73;1.47;;;;;;;-145.18;100.00;46658.44;5031608;28;20114;-67
2023/10/30 02:00:50;;;;;;;14.10;2.10;;;;;;;-145.18;100.00;46658.44;5029868;28;20033;-66
2023/10/30 02:03:16;;;;;;;15.77;1.60;;;;;;;-145.18;100.00;46660.41;5030064;28;20083;-66
2023/10/30 02:05:42;;;;;;;12.67;1.67;;;;;;;-145.18;100.00;46662.34;5029079;28;20774;-66
2023/10/30 02:08:09;;;;;;;8.90;1.40;;;;;;;-145.18;100.00;46658.44;5030935;28;20557;-66
2023/10/30 02:10:35;;;;;;;10.20;1.53;;;;;;;-145.18;100.00;46664.31;5031366;28;20068;-66
2023/10/30 02:13:04;;;;;;;4.50;1.17;;;;;;;-145.18;100.00;46660.41;5031834;28;20313;-66
2023/10/30 02:15:30;;;;;;;12.27;1.50;;;;;;;-145.18;100.00;46658.44;5031382;28;20298;-67
2023/10/30 02:17:55;;;;;;;12.30;1.90;;;;;;;-145.18;100.00;46658.44;5031384;28;20116;-66
2023/10/30 02:20:21;;;;;;;14.17;1.40;;;;;;;-145.18;100.00;46660.41;5030014;28;20037;-67
2023/10/30 02:22:46;;;;;;;10.33;1.30;;;;;;;-145.18;100.00;46662.34;5030262;28;20033;-67
2023/10/30 02:25:11;;;;;;;7.73;1.77;;;;;;;-145.18;100.00;46662.34;5031298;28;20045;-66
2023/10/30 02:27:37;;;;;;;12.93;1.50;;;;;;;-145.18;100.00;46658.44;5030036;28;20072;-66
2023/10/30 02:30:03;;;;;;;6.30;1.43;;;;;;;-145.18;100.00;46656.50;5031055;28;20043;-66
2023/10/30 02:32:28;;;;;;;20.83;1.70;;;;;;;-145.18;100.00;46658.44;5029966;28;20730;-66
2023/10/30 02:34:53;;;;;;;14.20;1.53;;;;;;;-145.18;100.00;46660.41;5031220;28;20037;-66
2023/10/30 02:37:19;;;;;;;9.57;1.63;;;;;;;-145.18;100.00;46656.50;5031159;28;20079;-66
2023/10/30 02:39:44;;;;;;;8.87;1.67;;;;;;;-145.18;100.00;46650.63;5030484;28;20108;-67
2023/10/30 02:42:10;;;;;;;12.97;1.50;;;;;;;-145.18;100.00;46652.59;5030958;28;20053;-66
2023/10/30 02:44:35;;;;;;;8.83;1.40;;;;;;;-145.18;100.00;46652.59;5030559;28;20037;-66
2023/10/30 02:47:01;;;;;;;9.63;1.60;;;;;;;-145.18;100.00;46654.53;5029904;28;20087;-66
2023/10/30 02:49:26;;;;;;;20.83;1.80;;;;;;;-145.18;100.00;46654.53;5030129;28;20462;-66
2023/10/30 02:51:52;;;;;;;15.97;1.70;;;;;;;-145.18;100.00;46654.53;5029890;28;20037;-66
2023/10/30 02:54:18;;;;;;;12.50;1.30;;;;;;;-145.18;100.00;46652.59;5035643;28;20347;-66
2023/10/30 02:56:43;;;;;;;10.67;1.23;;;;;;;-145.18;100.00;46650.63;5034725;28;20270;-66
2023/10/30 02:59:08;;;;;;;13.47;1.70;;;;;;;-145.18;100.00;46652.59;5036416;28;20033;-66
2023/10/30 03:01:34;;;;;;;10.13;1.40;;;;;;;-145.18;100.00;46650.63;5036238;28;20033;-67
2023/10/30 03:04:01;;;;;;;8.27;1.63;;;;;;;-145.18;100.00;46650.63;5037798;28;20065;-66
2023/10/30 03:06:26;;;;;;;11.43;1.53;;;;;;;-145.18;100.00;46650.63;5037478;28;20036;-66
2023/10/30 03:08:52;;;;;;;15.00;1.93;;;;;;;-145.18;100.00;46648.69;5035600;28;20282;-66
2023/10/30 03:11:17;;;;;;;6.03;1.30;;;;;;;-145.18;100.00;46650.63;5034730;28;20048;-66
2023/10/30 03:13:43;;;;;;;13.47;1.70;;;;;;;-145.18;100.00;46646.72;5035486;28;20061;-66
2023/10/30 03:16:08;;;;;;;12.33;1.67;;;;;;;-145.18;100.00;46648.69;5036142;28;20060;-66
2023/10/30 03:18:34;;;;;;;9.63;1.70;;;;;;;-145.18;100.00;46650.63;5036343;28;20440;-66
2023/10/30 03:21:00;;;;;;;9.03;1.70;;;;;;;-145.18;100.00;46646.72;5036568;28;20374;-66
2023/10/30 03:23:25;;;;;;;6.67;1.63;;;;;;;-145.18;100.00;46652.59;5036232;28;20505;-67
2023/10/30 03:25:50;;;;;;;10.37;1.70;;;;;;;-145.18;100.00;46646.72;5034468;28;20029;-67
2023/10/30 03:28:16;;;;;;;12.43;2.13;;;;;;;-145.18;100.00;46646.72;5037215;28;20041;-66
2023/10/30 03:30:41;;;;;;;15.10;1.87;;;;;;;-145.18;100.00;46650.63;5037514;28;20465;-66
2023/10/30 03:33:07;;;;;;;5.90;1.47;;;;;;;-145.18;100.00;46652.59;5037077;28;20037;-66
2023/10/30 03:35:37;;;;;;;13.23;1.60;;;;;;;-145.18;100.00;46654.53;5037677;28;20045;-66
2023/10/30 03:38:03;;;;;;;11.83;1.53;;;;;;;-145.18;100.00;46650.63;5034671;28;20623;-67
2023/10/30 03:40:28;;;;;;;7.97;1.43;;;;;;;-145.18;100.00;46646.72;5036210;28;20068;-66
2023/10/30 03:42:53;;;;;;;9.10;1.80;;;;;;;-145.18;100.00;46650.63;5036041;28;20062;-66
2023/10/30 03:45:19;;;;;;;7.93;1.60;;;;;;;-145.18;100.00;46648.69;5036356;28;20033;-66
2023/10/30 03:47:45;;;;;;;12.77;1.80;;;;;;;-145.18;100.00;46648.69;5035817;28;20041;-66
2023/10/30 03:50:12;;;;;;;9.40;1.80;;;;;;;-145.18;100.00;46652.59;5036274;28;20033;-66
2023/10/30 03:52:39;;;;;;;14.60;1.80;;;;;;;-145.18;100.00;46646.72;5036970;28;20346;-66
2023/10/30 03:55:04;;;;;;;14.37;1.80;;;;;;;-145.18;100.00;46648.69;5036580;28;20788;-66
2023/10/30 03:57:30;;;;;;;8.53;1.53;;;;;;;-145.18;100.00;46650.63;5035793;28;20354;-67
2023/10/30 03:59:56;;;;;;;8.80;1.20;;;;;;;-145.18;100.00;46648.69;5037158;28;20042;-66
2023/10/30 04:02:21;;;;;;;10.97;1.47;;;;;;;-145.18;100.00;46650.63;5035898;28;20053;-66
2023/10/30 04:04:47;;;;;;;7.90;1.30;;;;;;;-145.18;100.00;46654.53;5035730;28;20270;-66
2023/10/30 04:07:12;;;;;;;9.73;1.33;;;;;;;-145.18;100.00;46650.63;5032543;28;20815;-67
2023/10/30 04:09:38;;;;;;;10.10;1.57;;;;;;;-145.18;100.00;46650.63;5027867;28;20038;-67
2023/10/30 04:12:04;;;;;;;11.80;1.80;;;;;;;-145.18;100.00;46646.72;5032840;28;20037;-67
2023/10/30 04:14:32;;;;;;;8.20;1.80;;;;;;;-145.18;100.00;46648.69;5033604;28;20033;-66
2023/10/30 04:16:59;;;;;;;17.60;1.43;;;;;;;-145.18;100.00;46650.63;5030890;28;20294;-66
2023/10/30 04:19:24;;;;;;;8.07;1.30;;;;;;;-145.18;100.00;46644.78;5014517;28;20278;-67
2023/10/30 04:21:50;;;;;;;10.33;1.43;;;;;;;-145.18;100.00;46648.69;5032131;28;20349;-66
2023/10/30 04:24:15;;;;;;;5.27;1.23;;;;;;;-145.18;100.00;46646.72;5032127;28;20048;-66
2023/10/30 04:26:41;;;;;;;15.33;1.40;;;;;;;-145.18;100.00;46650.63;5033548;28;20415;-67
2023/10/30 04:29:06;;;;;;;13.33;1.27;;;;;;;-145.18;100.00;46646.72;5030539;28;20152;-67
2023/10/30 04:31:31;;;;;;;16.00;1.60;;;;;;;-145.18;100.00;46646.72;5031712;28;20470;-66
2023/10/30 04:33:57;;;;;;;6.37;1.20;;;;;;;-145.18;100.00;46644.78;5014982;28;20068;-66
2023/10/30 04:36:22;;;;;;;13.37;1.80;;;;;;;-145.18;100.00;46646.72;5032253;28;20036;-66
2023/10/30 04:38:49;;;;;;;14.10;1.90;;;;;;;-145.18;100.00;46648.69;5034863;28;20091;-66
2023/10/30 04:41:15;;;;;;;7.40;1.30;;;;;;;-145.18;100.00;46648.69;5032110;28;20107;-66
2023/10/30 04:43:41;;;;;;;11.77;1.47;;;;;;;-145.18;100.00;46650.63;5026575;28;20271;-66
2023/10/30 04:46:06;;;;;;;7.33;1.40;;;;;;;-145.18;100.00;46644.78;5030633;28;20040;-66
2023/10/30 04:48:32;;;;;;;12.77;1.53;;;;;;;-145.18;100.00;46644.78;5032284;28;20065;-67
2023/10/30 04:50:58;;;;;;;5.87;1.10;;;;;;;-145.18;100.00;46646.72;5033258;28;20029;-66
2023/10/30 04:53:24;;;;;;;10.37;1.67;;;;;;;-145.18;100.00;46646.72;5034275;28;20108;-66
2023/10/30 04:55:50;;;;;;;12.93;3.20;;;;;;;-145.18;100.00;46648.69;5032345;28;20971;-66
2023/10/30 04:58:15;;;;;;;10.77;1.97;;;;;;;-145.18;100.00;46644.78;5032922;28;20049;-66
2023/10/30 05:00:42;;;;;;;12.10;1.90;;;;;;;-145.18;100.00;46646.72;5032032;28;20307;-66
2023/10/30 05:03:09;;;;;;;8.20;1.60;;;;;;;-145.18;100.00;46648.69;5032710;28;20037;-66
2023/10/30 05:05:35;;;;;;;11.27;1.50;;;;;;;-145.18;100.00;46644.78;5032394;28;20789;-66
2023/10/30 05:08:01;;;;;;;10.00;1.73;;;;;;;-145.18;100.00;46646.72;5039282;28;20280;-66
2023/10/30 05:10:27;;;;;;;10.13;1.80;;;;;;;-145.18;100.00;46644.78;5033135;28;20278;-66
2023/10/30 05:12:52;;;;;;;7.90;1.70;;;;;;;-145.18;100.00;46644.78;5030418;28;20497;-66
2023/10/30 05:15:18;;;;;;;13.30;2.13;;;;;;;-145.18;100.00;46642.81;5031527;28;20037;-66
2023/10/30 05:17:44;;;;;;;16.13;2.60;;;;;;;-145.18;100.00;46642.81;5031869;28;20032;-66
2023/10/30 05:20:09;;;;;;;7.23;2.27;;;;;;;-145.18;100.00;46638.91;5031554;28;20056;-66
2023/10/30 05:22:35;;;;;;;10.33;1.30;;;;;;;-145.18;100.00;46642.81;5034840;28;20087;-66
2023/10/30 05:25:03;;;;;;;15.07;2.83;;;;;;;-145.18;100.00;46646.72;5016102;28;20030;-66
2023/10/30 05:27:30;;;;;;;8.00;1.60;;;;;;;-145.18;100.00;46638.91;5032356;28;20531;-66
2023/10/30 05:29:55;;;;;;;9.17;1.90;;;;;;;-145.18;100.00;46638.91;5029915;28;20821;-66
2023/10/30 05:32:21;;;;;;;14.63;1.80;;;;;;;-145.18;100.00;46638.91;5031819;28;20350;-66
2023/10/30 05:34:46;;;;;;;12.83;2.33;;;;;;;-145.18;100.00;46640.88;5030805;28;20466;-66
2023/10/30 05:37:12;;;;;;;15.03;1.80;;;;;;;-145.18;100.00;46640.88;5030455;28;20466;-71
2023/10/30 05:39:38;;;;;;;9.77;1.90;;;;;;;-145.18;100.00;46638.91;5030240;28;20423;-72
2023/10/30 05:42:04;;;;;;;16.27;1.50;;;;;;;-145.18;100.00;46640.88;5026840;28;20053;-72
2023/10/30 05:44:30;;;;;;;10.90;1.57;;;;;;;-145.18;100.00;46636.94;5028890;28;20397;-72
2023/10/30 05:46:56;;;;;;;6.97;1.60;;;;;;;-145.18;100.00;46638.91;5030738;28;20152;-72
2023/10/30 05:49:21;;;;;;;10.87;1.77;;;;;;;-145.18;100.00;46635.00;5028437;28;20505;-71
2023/10/30 05:51:47;;;;;;;7.00;1.50;;;;;;;-145.18;100.00;46636.94;5024944;28;20026;-71
2023/10/30 05:54:12;;;;;;;7.33;1.40;;;;;;;-145.18;100.00;46640.88;5027814;28;20476;-72
2023/10/30 05:56:37;;;;;;;9.60;1.60;;;;;;;-145.18;100.00;46638.91;5030024;28;20029;-71
2023/10/30 05:59:03;;;;;;;11.43;1.87;;;;;;;-145.18;100.00;46640.88;5029481;28;20033;-71
2023/10/30 06:01:28;;;;;;;13.30;1.90;;;;;;;-145.18;100.00;46638.91;5028474;28;20375;-71
2023/10/30 06:03:54;;;;;;;14.17;1.47;;;;;;;-145.18;100.00;46638.91;5030888;28;20485;-72
2023/10/30 06:06:20;;;;;;;4.60;1.50;;;;;;;-145.18;100.00;46640.88;5028408;28;20095;-72
2023/10/30 06:08:45;;;;;;;12.97;1.77;;;;;;;-145.18;100.00;46638.91;5018682;28;20038;-71
2023/10/30 06:11:10;;;;;;;10.00;1.60;;;;;;;-145.18;100.00;46638.91;5026950;28;20026;-71
2023/10/30 06:13:36;;;;;;;13.60;1.60;;;;;;;-145.18;100.00;46636.94;5025562;28;20036;-72
2023/10/30 06:16:02;;;;;;;10.07;1.77;;;;;;;-145.18;100.00;46638.91;5019442;28;20029;-72
2023/10/30 06:18:27;;;;;;;10.17;1.57;;;;;;;-145.18;100.00;46638.91;5028423;28;20139;-71
2023/10/30 06:20:53;;;;;;;14.33;2.07;;;;;;;-145.18;100.00;46636.94;5030765;28;20035;-71
2023/10/30 06:23:18;;;;;;;14.87;1.97;;;;;;;-145.18;100.00;46640.88;5023798;28;20044;-71
2023/10/30 06:25:44;;;;;;;10.90;2.10;;;;;;;-145.18;100.00;46636.94;5027698;28;20113;-71
2023/10/30 06:28:12;;;;;;;7.57;1.63;;;;;;;-145.18;100.00;46660.41;5020391;28;20450;-71
2023/10/30 06:30:38;;;;;;;14.87;2.07;;;;;;;-145.18;100.00;46660.41;5024702;28;20144;-71
2023/10/30 06:33:03;;;;;;;8.47;1.73;;;;;;;-145.18;100.00;46636.94;5027574;28;20335;-71
2023/10/30 06:35:29;;;;;;;12.30;1.97;;;;;;;-145.18;100.00;46660.41;5030141;28;20520;-71
2023/10/30 06:37:54;;;;;;;13.77;1.97;;;;;;;-145.18;100.00;46660.41;5031328;28;20029;-71
2023/10/30 06:40:20;;;;;;;10.93;1.73;;;;;;;-145.18;100.00;46636.94;5031892;28;20036;-72
2023/10/30 06:42:45;;;;;;;9.30;2.00;;;;;;;-145.18;100.00;46635.00;5030977;28;20049;-71
2023/10/30 06:45:10;;;;;;;12.17;1.70;;;;;;;-145.18;100.00;46660.41;5031355;28;20563;-72
2023/10/30 06:47:36;;;;;;;15.27;2.07;;;;;;;-145.18;100.00;46636.94;5030539;28;20107;-71
2023/10/30 06:50:02;;;;;;;13.97;2.47;;;;;;;-145.18;100.00;46660.41;5031836;28;20057;-71
2023/10/30 06:52:28;;;;;;;12.17;1.83;;;;;;;-145.18;100.00;46660.41;5032105;28;20056;-71
2023/10/30 06:54:53;;;;;;;11.40;1.70;;;;;;;-145.18;100.00;46635.00;5010789;28;20324;-71
2023/10/30 06:57:18;;;;;;;13.10;1.73;;;;;;;-145.18;100.00;46660.41;5028649;28;20029;-71
2023/10/30 06:59:44;;;;;;;13.13;2.10;;;;;;;-145.18;100.00;46633.06;5031785;28;20028;-72
2023/10/30 07:02:10;;;;;;;11.63;2.97;;;;;;;-145.18;100.00;46633.06;5031781;28;20037;-71
2023/10/30 07:04:35;;;;;;;12.10;2.87;;;;;;;-145.18;100.00;46631.09;5022357;28;20107;-71
2023/10/30 07:07:01;;;;;;;15.67;2.00;;;;;;;-145.18;100.00;46631.09;5027740;28;20034;-71
2023/10/30 07:09:26;;;;;;;17.33;2.30;;;;;;;-145.18;100.00;46635.00;5030012;28;20041;-71
2023/10/30 07:11:52;;;;;;;13.47;2.07;;;;;;;-145.18;100.00;46629.13;5031373;28;20505;-72
2023/10/30 07:14:17;;;;;;;14.17;2.47;;;;;;;-145.18;100.00;46629.13;5029961;28;20045;-72
2023/10/30 07:16:43;;;;;;;14.27;2.50;;;;;;;-145.18;100.00;46633.06;5031386;28;20498;-72
2023/10/30 07:19:08;;;;;;;11.77;2.10;;;;;;;-145.18;100.00;46629.13;5031296;28;20034;-71
2023/10/30 07:21:33;;;;;;;14.43;3.27;;;;;;;-145.18;100.00;46631.09;5030786;28;20033;-71
2023/10/30 07:23:59;;;;;;;9.13;2.30;;;;;;;-145.18;100.00;46627.19;5031478;28;20040;-71
2023/10/30 07:26:24;;;;;;;8.27;2.00;;;;;;;-145.18;100.00;46627.19;5031245;28;20035;-71
2023/10/30 07:28:51;;;;;;;11.43;2.40;;;;;;;-145.18;100.00;46635.00;5031619;28;20038;-72
2023/10/30 07:31:20;;;;;;;14.10;2.53;;;;;;;-145.18;100.00;46625.22;5031571;28;20030;-71
2023/10/30 07:33:46;;;;;;;14.97;2.20;;;;;;;-145.18;100.00;46631.09;5031266;28;20263;-71
2023/10/30 07:36:11;;;;;;;13.37;2.00;;;;;;;-145.18;100.00;46629.13;5030796;28;20342;-72
2023/10/30 07:38:37;;;;;;;11.97;2.27;;;;;;;-145.18;100.00;46623.28;5029928;28;20116;-72
2023/10/30 07:41:03;;;;;;;12.27;3.30;;;;;;;-145.18;100.00;46623.28;5033990;28;20053;-71
2023/10/30 07:43:29;;;;;;;13.20;2.10;;;;;;;-145.18;100.00;46621.31;5035678;28;20429;-72
2023/10/30 07:45:55;;;;;;;9.33;1.67;;;;;;;-145.18;100.00;46623.28;5036621;28;20024;-71
2023/10/30 07:48:23;;;;;;;10.57;2.37;;;;;;;-145.18;100.00;46621.31;5033340;28;20057;-71
2023/10/30 07:50:50;;;;;;;8.47;1.80;;;;;;;-145.18;100.00;46623.28;5032727;28;20490;-72
2023/10/30 07:53:15;;;;;;;16.73;1.70;;;;;;;-145.18;100.00;46625.22;5033739;28;20052;-71
2023/10/30 07:55:41;;;;;;;11.70;2.90;;;;;;;-145.18;100.00;46621.31;5019593;28;20021;-72
2023/10/30 07:58:07;;;;;;;16.60;2.23;;;;;;;-145.18;100.00;46627.19;5034470;28;20378;-72
2023/10/30 08:00:33;;;;;;;21.13;2.20;;;;;;;-145.18;100.00;46621.31;5047178;28;20044;-71
2023/10/30 08:02:59;;;;;;;20.53;3.20;;;;;;;-145.18;100.00;46623.28;5038346;28;20072;-71
2023/10/30 08:05:25;;;;;;;18.03;2.47;;;;;;;-145.18;100.00;46625.22;5027853;28;20021;-71
2023/10/30 08:07:51;;;;;;;12.13;1.77;;;;;;;-145.18;100.00;46627.19;5034771;28;20029;-71
2023/10/30 08:10:16;;;;;;;12.57;2.57;;;;;;;-145.18;100.00;46625.22;5040233;28;20065;-71
2023/10/30 08:12:42;;;;;;;21.17;2.90;;;;;;;-145.18;100.00;46629.13;5035822;28;20036;-72
2023/10/30 08:15:07;;;;;;;16.33;2.13;;;;;;;-145.18;100.00;46627.19;5034631;28;20075;-72
2023/10/30 08:17:33;;;;;;;15.70;2.30;;;;;;;-145.18;100.00;46623.28;5033945;28;20025;-72
2023/10/30 08:19:59;;;;;;;12.37;2.40;;;;;;;-145.18;100.00;46629.13;5030690;28;20037;-71
2023/10/30 08:22:24;;;;;;;17.17;2.77;;;;;;;-145.18;100.00;46629.13;5028064;28;20497;-71
2023/10/30 08:24:50;;;;;;;13.13;2.37;;;;;;;-145.18;100.00;46633.06;5033243;28;20068;-72
2023/10/30 08:27:15;;;;;;;15.97;1.90;;;;;;;-145.18;100.00;46635.00;5041553;28;20597;-71
2023/10/30 08:29:41;;;;;;;18.90;3.57;;;;;;;-145.18;100.00;46631.09;5033955;28;20037;-72
2023/10/30 08:32:06;;;;;;;18.00;2.40;;;;;;;-145.18;100.00;46633.06;5042622;28;20033;-71
2023/10/30 08:34:32;;;;;;;11.17;1.87;;;;;;;-145.18;100.00;46636.94;5039882;28;20053;-71
2023/10/30 08:36:58;;;;;;;8.50;1.57;;;;;;;-145.18;100.00;46638.91;5034727;28;20492;-71
2023/10/30 08:39:23;;;;;;;11.60;2.40;;;;;;;-145.18;100.00;46635.00;5038790;28;20025;-71
2023/10/30 08:41:48;;;;;;;13.60;2.50;;;;;;;-145.18;100.00;46635.00;5040058;28;20061;-72
2023/10/30 08:44:14;;;;;;;10.17;2.07;;;;;;;-145.18;100.00;46636.94;5044316;28;20120;-72
2023/10/30 08:46:39;;;;;;;8.70;1.80;;;;;;;-145.18;100.00;46638.91;5033412;28;20049;-72
2023/10/30 08:49:05;;;;;;;16.13;2.57;;;;;;;-145.18;100.00;46635.00;5035614;28;20120;-71
2023/10/30 08:51:31;;;;;;;12.07;1.90;;;;;;;-145.18;100.00;46636.94;5047627;28;20036;-72
2023/10/30 08:53:57;;;;;;;13.53;2.27;;;;;;;-145.18;100.00;46636.94;5043002;28;20033;-72
2023/10/30 08:56:22;;;;;;;10.10;2.03;;;;;;;-145.18;100.00;46635.00;5035396;28;20022;-72
2023/10/30 08:58:48;;;;;;;7.67;1.67;;;;;;;-145.18;100.00;46638.91;5033172;28;20065;-72
2023/10/30 09:01:14;;;;;;;14.40;2.50;;;;;;;-145.18;100.00;46635.00;5044334;28;20079;-73
2023/10/30 09:03:42;;;;;;;16.33;3.20;;;;;;;-145.18;100.00;46638.91;5040296;28;20040;-72
2023/10/30 09:06:08;;;;;;;10.07;2.13;;;;;;;-145.18;100.00;46638.91;5033328;28;20029;-72
2023/10/30 09:08:34;;;;;;;9.73;2.03;;;;;;;-145.18;100.00;46638.91;5043448;28;20020;-66
2023/10/30 09:10:59;;;;;;;10.30;1.93;;;;;;;-145.18;100.00;46638.91;5039046;28;20400;-66
2023/10/30 09:13:24;;;;;;;12.03;1.83;;;;;;;-145.18;100.00;46636.94;5038095;28;20533;-66
2023/10/30 09:15:50;;;;;;;11.00;1.80;;;;;;;-145.18;100.00;46640.88;5038933;28;20102;-66
2023/10/30 09:18:15;;;;;;;12.07;1.80;;;;;;;-145.18;100.00;46640.88;5044763;28;20037;-66
2023/10/30 09:20:41;;;;;;;11.03;2.07;;;;;;;-145.18;100.00;46640.88;5031160;28;20029;-66
2023/10/30 09:23:07;;;;;;;19.30;2.53;;;;;;;-145.18;100.00;46646.72;5034573;28;20065;-66
2023/10/30 09:25:32;;;;;;;9.10;1.70;;;;;;;-145.18;100.00;46644.78;5032995;28;20072;-66
2023/10/30 09:27:58;;;;;;;14.50;2.17;;;;;;;-145.18;100.00;46644.78;5029736;28;20398;-66
2023/10/30 09:30:29;;;;;;;14.43;1.67;;;;;;;-145.18;100.00;46644.78;5035960;28;20508;-66
2023/10/30 09:32:55;;;;;;;17.70;2.37;;;;;;;-145.18;100.00;46644.78;5037039;28;20043;-66
2023/10/30 09:35:21;;;;;;;12.47;2.80;;;;;;;-145.18;100.00;46648.69;5038282;28;20025;-66
2023/10/30 09:37:47;;;;;;;10.33;1.60;;;;;;;-145.18;100.00;46650.63;5036870;28;20059;-66
2023/10/30 09:40:13;;;;;;;9.37;1.77;;;;;;;-145.18;100.00;46648.69;5031488;28;20497;-66
2023/10/30 09:42:49;;;;;;;7.33;1.70;;;;;;;-145.18;100.00;46652.59;5031390;28;20057;-66
2023/10/30 09:45:15;;;;;;;10.65;1.92;;;;;;;-145.18;100.00;46652.59;5041338;28;20033;-66
2023/10/30 09:47:42;;;;;;;10.37;1.27;;;;;;;-145.18;100.00;46658.44;5035254;28;20060;-66
2023/10/30 09:50:09;;;;;;;9.67;1.50;;;;;;;-145.18;100.00;46660.41;5025257;28;20041;-66
2023/10/30 09:52:36;;;;;;;12.00;1.73;;;;;;;-145.18;100.00;46660.41;5031335;28;20040;-66
2023/10/30 09:55:09;;;;;;;8.20;1.50;;;;;;;-145.18;100.00;46666.25;5033718;28;20033;-66
2023/10/30 09:57:35;;;;;;;11.20;1.67;;;;;;;-145.18;100.00;46670.16;5033891;28;20025;-66
2023/10/30 10:00:05;;;;;;;7.53;2.07;;;;;;;-145.18;100.00;46668.22;5038573;28;20029;-66
2023/10/30 10:02:32;;;;;;;12.00;1.83;;;;;;;-145.18;100.00;46660.41;5036660;28;20025;-66
2023/10/30 10:04:57;;;;;;;16.77;2.47;;;;;;;-145.18;100.00;46668.22;5027066;28;20092;-66
2023/10/30 10:07:24;;;;;;;10.80;2.10;;;;;;;-145.18;100.00;46662.34;5033892;28;20036;-66
2023/10/30 10:10:00;;;;;;;7.27;1.50;;;;;;;-145.18;100.00;46670.16;5038690;28;20065;-66
2023/10/30 10:12:26;;;;;;;11.03;1.33;;;;;;;-145.18;100.00;46668.22;5030900;28;20107;-66
2023/10/30 10:14:51;;;;;;;13.20;2.43;;;;;;;-145.18;100.00;46666.25;5032244;28;20057;-66
2023/10/30 10:17:17;;;;;;;8.87;1.40;;;;;;;-145.18;100.00;46672.13;5032226;28;20028;-67
2023/10/30 10:19:46;;;;;;;11.03;1.80;;;;;;;-145.18;100.00;46670.16;5032102;28;20565;-66
2023/10/30 10:22:27;;;;;;;10.90;1.67;;;;;;;-145.18;100.00;46664.31;5033714;28;20167;-66
2023/10/30 10:24:53;;;;;;;17.00;2.13;;;;;;;-145.18;100.00;46670.16;5035865;28;20053;-66
2023/10/30 10:27:19;;;;;;;7.57;1.50;;;;;;;-145.18;100.00;46672.13;5032912;28;20061;-66
2023/10/30 10:29:52;;;;;;;10.50;1.30;;;;;;;-145.18;100.00;46664.31;5035780;28;20021;-66
2023/10/30 10:32:17;;;;;;;11.57;1.43;;;;;;;-145.18;100.00;46668.22;5036319;28;20029;-66
2023/10/30 10:34:42;;;;;;;10.77;2.40;;;;;;;-145.18;100.00;46670.16;5032959;28;20026;-67
2023/10/30 10:37:17;;;;;;;5.93;1.60;;;;;;;-145.18;100.00;46664.31;5032720;28;20493;-67
2023/10/30 10:39:53;;;;;;;8.37;1.53;;;;;;;-145.18;100.00;46664.31;5032502;28;20477;-67
2023/10/30 10:42:27;;;;;;;8.10;1.50;;;;;;;-145.18;100.00;46672.13;5031663;28;20075;-67
2023/10/30 10:44:55;;;;;;;14.07;1.80;;;;;;;-145.18;100.00;46672.13;5035114;28;20033;-67
2023/10/30 10:47:21;;;;;;;10.13;1.77;;;;;;;-145.18;100.00;46670.16;5031207;28;20029;-67
2023/10/30 10:49:47;;;;;;;4.70;1.03;;;;;;;-145.18;100.00;46676.03;5037112;28;20029;-67
2023/10/30 10:52:15;;;;;;;9.10;1.67;;;;;;;-145.18;100.00;46676.03;5034503;28;20167;-67
2023/10/30 10:54:58;;;;;;;10.53;1.77;;;;;;;-145.18;100.00;46672.13;5031497;28;20036;-67
2023/10/30 10:57:24;;;;;;;9.77;1.90;;;;;;;-145.18;100.00;46674.06;5037427;28;20013;-67
2023/10/30 11:00:00;;;;;;;5.33;1.20;;;;;;;-145.18;100.00;46674.06;5041442;28;20043;-68